Time;durP1;ratioP1;P1;durP2;ratioP2;P2;SDS_P1;SDS_P2;PMS_P1;PMS_P2;Temp;Humidity;BMP_temperature;BMP_pressure;BME280_temperature;BME280_humidity;BME280_pressure;Samples;Min_cycle;Max_cycle;Signal;HPM_P1;HPM_P2
2022/06/04 00:02:21;;;;;;;0.63;0.63;;;;;;;20.89;42.94;101084.31;5141605;28;20039;-85
2022/06/04 00:04:52;;;;;;;0.30;0.30;;;;;;;20.91;42.53;101079.75;5129956;28;20122;-83
2022/06/04 00:07:29;;;;;;;0.30;0.30;;;;;;;20.87;42.63;101087.09;5129075;28;20046;-85
2022/06/04 00:15:55;;;;;;;0.30;0.30;;;;;;;20.75;43.23;101086.06;5131984;28;20547;-82
2022/06/04 00:18:26;;;;;;;0.30;0.30;;;;;;;20.68;44.07;101083.84;5116586;28;20394;-85
2022/06/04 00:21:00;;;;;;;1.02;0.68;;;;;;;20.67;43.34;101085.69;5138044;28;20051;-83
2022/06/04 00:23:32;;;;;;;0.40;0.40;;;;;;;20.70;42.99;101087.28;5133671;28;20030;-84
2022/06/04 00:26:05;;;;;;;0.45;0.40;;;;;;;20.62;43.29;101086.91;5111589;29;20044;-84
2022/06/04 00:28:39;;;;;;;0.35;0.35;;;;;;;20.64;43.02;101085.88;5118310;28;20105;-87
2022/06/04 00:31:18;;;;;;;0.47;0.47;;;;;;;20.61;43.03;101080.75;5162258;28;20058;-86
2022/06/04 00:33:49;;;;;;;0.70;0.70;;;;;;;20.59;42.89;101087.97;5128692;28;20049;-84
2022/06/04 00:36:19;;;;;;;0.50;0.50;;;;;;;20.55;42.88;101091.78;5122682;28;20035;-86
2022/06/04 00:38:50;;;;;;;0.30;0.30;;;;;;;20.55;42.81;101095.31;5109616;28;20027;-86
2022/06/04 00:41:51;;;;;;;2.03;0.95;;;;;;;20.53;43.06;101099.88;5107865;28;20046;-84
2022/06/04 00:44:31;;;;;;;0.35;0.35;;;;;;;20.52;42.93;101092.00;5096269;28;20056;-84
2022/06/04 00:47:15;;;;;;;1.38;1.27;;;;;;;20.52;43.07;101097.31;5116365;28;20035;-85
2022/06/04 00:49:50;;;;;;;3.47;0.90;;;;;;;20.45;42.94;101092.34;5144669;28;20031;-84
2022/06/04 00:52:25;;;;;;;0.63;0.63;;;;;;;20.40;43.82;101093.63;5128471;28;20694;-86
2022/06/04 00:54:57;;;;;;;0.30;0.30;;;;;;;20.36;43.87;101098.28;5119278;28;20181;-86
2022/06/04 00:58:02;;;;;;;0.55;0.55;;;;;;;20.35;43.49;101107.22;5138757;28;20027;-85
2022/06/04 01:00:53;;;;;;;0.68;0.68;;;;;;;20.33;43.70;101108.28;5124400;28;20079;-84
2022/06/04 01:03:53;;;;;;;4.57;1.95;;;;;;;20.26;44.66;101118.44;5141899;28;20037;-84
2022/06/04 01:06:43;;;;;;;0.40;0.40;;;;;;;20.24;43.61;101126.56;5121208;28;20065;-86
2022/06/04 01:09:18;;;;;;;0.30;0.30;;;;;;;20.22;43.79;101123.13;5124492;28;20098;-86
2022/06/04 01:12:10;;;;;;;0.32;0.32;;;;;;;20.23;43.86;101130.16;5122058;28;20035;-84
2022/06/04 01:14:59;;;;;;;2.10;0.40;;;;;;;20.20;44.31;101134.81;5117660;28;20054;-85
2022/06/04 01:17:38;;;;;;;0.35;0.35;;;;;;;20.20;44.40;101135.66;5098405;28;20046;-85
2022/06/04 01:20:20;;;;;;;0.50;0.50;;;;;;;20.16;44.06;101130.63;5122038;28;20046;-85
2022/06/04 01:23:28;;;;;;;0.40;0.40;;;;;;;20.06;44.59;101127.66;5108599;28;20100;-86
2022/06/04 01:26:17;;;;;;;0.45;0.45;;;;;;;20.04;44.36;101130.41;5069298;28;20035;-87
2022/06/04 01:28:54;;;;;;;0.90;0.90;;;;;;;20.05;44.36;101129.47;5163169;28;20062;-87
2022/06/04 01:31:36;;;;;;;0.30;0.30;;;;;;;20.02;44.28;101140.31;5163080;28;20023;-85
2022/06/04 01:34:17;;;;;;;0.60;0.60;;;;;;;19.99;44.47;101137.81;5161631;28;20053;-86
2022/06/04 01:37:04;;;;;;;0.30;0.30;;;;;;;19.98;44.28;101136.09;5120419;28;20358;-85
2022/06/04 01:42:33;;;;;;;0.40;0.40;;;;;;;19.94;44.45;101139.91;5143909;28;20050;-84
2022/06/04 01:45:15;;;;;;;3.30;0.50;;;;;;;19.83;45.04;101137.88;5135890;28;20047;-84
2022/06/04 01:47:50;;;;;;;0.40;0.40;;;;;;;19.85;44.62;101135.16;5121728;28;20058;-84
2022/06/04 01:50:32;;;;;;;0.40;0.40;;;;;;;19.80;44.92;101136.22;5134337;28;20051;-84
2022/06/04 01:53:15;;;;;;;1.70;0.95;;;;;;;19.70;45.53;101145.72;5119488;28;20127;-86
2022/06/04 01:55:53;;;;;;;8.15;1.48;;;;;;;19.78;45.00;101139.94;5138947;28;20063;-88
2022/06/04 01:58:30;;;;;;;0.40;0.40;;;;;;;19.79;44.79;101139.00;5140644;28;20527;-84
2022/06/04 02:01:10;;;;;;;0.40;0.40;;;;;;;19.77;44.79;101143.53;5141788;28;20223;-83
2022/06/04 02:03:47;;;;;;;0.30;0.30;;;;;;;19.71;45.13;101146.56;5109987;28;20083;-85
2022/06/04 02:06:22;;;;;;;0.28;0.28;;;;;;;19.68;44.87;101150.28;5151053;28;20062;-88
2022/06/04 02:08:59;;;;;;;0.20;0.20;;;;;;;19.70;45.13;101137.75;5136700;28;20074;-86
2022/06/04 02:11:31;;;;;;;4.00;0.93;;;;;;;19.66;44.94;101130.88;5134393;28;20059;-86
2022/06/04 02:14:07;;;;;;;0.90;0.90;;;;;;;19.56;45.30;101121.69;5146852;28;20030;-85
2022/06/04 02:16:52;;;;;;;0.38;0.38;;;;;;;19.51;45.75;101127.28;5128283;28;20038;-86
2022/06/04 02:19:23;;;;;;;0.40;0.40;;;;;;;19.52;45.53;101125.50;5128588;28;20026;-85
2022/06/04 02:21:57;;;;;;;0.68;0.68;;;;;;;19.50;45.29;101129.13;5106888;28;20047;-85
2022/06/04 02:24:28;;;;;;;0.40;0.40;;;;;;;19.45;46.44;101131.19;5139314;28;20142;-85
2022/06/04 02:27:01;;;;;;;0.40;0.40;;;;;;;19.46;45.61;101132.03;5120671;28;20263;-85
2022/06/04 02:29:36;;;;;;;0.60;0.60;;;;;;;19.43;45.31;101134.88;5124037;28;20043;-85
2022/06/04 02:32:10;;;;;;;0.25;0.25;;;;;;;19.35;46.81;101117.53;5106492;29;20048;-85
2022/06/04 02:34:52;;;;;;;1.23;1.20;;;;;;;19.41;47.06;101126.13;5137976;28;20526;-85
2022/06/04 02:37:26;;;;;;;1.88;0.50;;;;;;;19.35;46.64;101122.88;5120649;28;20043;-83
2022/06/04 02:40:16;;;;;;;0.30;0.30;;;;;;;19.33;45.81;101121.25;5127897;28;20739;-85
2022/06/04 02:42:57;;;;;;;0.30;0.30;;;;;;;19.31;46.32;101108.03;5127981;28;20102;-85
2022/06/04 02:45:33;;;;;;;0.32;0.32;;;;;;;19.27;45.85;101108.31;5117702;28;20047;-85
2022/06/04 02:48:28;;;;;;;0.30;0.30;;;;;;;19.27;46.82;101095.00;5142271;28;20031;-85
2022/06/04 02:51:15;;;;;;;0.30;0.30;;;;;;;19.21;45.98;101098.03;5126850;28;20463;-85
2022/06/04 02:53:49;;;;;;;0.50;0.50;;;;;;;19.19;45.81;101101.63;5122283;28;20043;-85
2022/06/04 02:56:27;;;;;;;0.38;0.38;;;;;;;19.17;46.19;101111.50;5118300;28;20173;-85
2022/06/04 02:59:02;;;;;;;0.57;0.57;;;;;;;19.13;46.30;101104.63;5106649;28;20530;-84
2022/06/04 03:01:42;;;;;;;0.60;0.60;;;;;;;19.05;46.92;101101.53;5125661;28;20162;-85
2022/06/04 03:04:13;;;;;;;0.38;0.38;;;;;;;19.09;46.48;101095.13;5123274;28;20043;-85
2022/06/04 03:06:46;;;;;;;0.40;0.40;;;;;;;19.06;46.11;101089.97;5110661;28;20058;-85
2022/06/04 03:09:19;;;;;;;0.80;0.75;;;;;;;19.04;46.41;101078.56;5103467;28;20136;-85
2022/06/04 03:11:50;;;;;;;0.40;0.40;;;;;;;18.98;46.49;101081.56;5135348;28;20042;-84
2022/06/04 03:14:21;;;;;;;1.00;0.75;;;;;;;18.97;46.41;101082.50;5130773;28;20035;-85
2022/06/04 03:16:52;;;;;;;1.38;0.60;;;;;;;18.93;46.22;101084.47;5110320;28;20035;-85
2022/06/04 03:19:22;;;;;;;0.93;0.93;;;;;;;18.94;46.40;101096.00;5113007;28;20058;-85
2022/06/04 03:21:53;;;;;;;0.35;0.35;;;;;;;18.90;46.33;101094.41;5126632;28;20073;-85
2022/06/04 03:24:23;;;;;;;1.20;1.10;;;;;;;18.82;47.68;101110.78;5126913;28;20042;-84
2022/06/04 03:26:54;;;;;;;0.25;0.25;;;;;;;18.85;46.46;101116.78;5121440;28;20620;-84
2022/06/04 03:29:25;;;;;;;0.30;0.30;;;;;;;18.81;47.03;101103.75;5128578;28;20098;-86
2022/06/04 03:31:57;;;;;;;0.73;0.73;;;;;;;18.80;46.76;101104.69;5143363;28;20057;-84
2022/06/04 03:34:27;;;;;;;0.38;0.38;;;;;;;18.80;46.90;101121.50;5124795;28;20035;-87
2022/06/04 03:37:01;;;;;;;0.30;0.30;;;;;;;18.76;46.50;101117.31;5136572;28;20042;-86
2022/06/04 03:39:35;;;;;;;0.50;0.50;;;;;;;18.78;46.52;101117.22;5119531;28;20057;-84
2022/06/04 03:42:09;;;;;;;0.43;0.43;;;;;;;18.76;46.70;101119.97;5136918;28;20051;-84
2022/06/04 03:44:42;;;;;;;0.57;0.57;;;;;;;18.71;46.78;101117.56;5139611;28;20030;-87
2022/06/04 03:47:17;;;;;;;0.40;0.40;;;;;;;18.68;48.62;101127.50;5135032;28;20035;-86
2022/06/04 03:49:50;;;;;;;0.40;0.40;;;;;;;18.66;46.69;101126.72;5127072;28;20047;-86
2022/06/04 03:52:24;;;;;;;0.32;0.32;;;;;;;18.66;48.14;101134.69;5144660;28;20031;-85
2022/06/04 03:55:02;;;;;;;0.40;0.40;;;;;;;18.59;48.93;101122.69;5146957;28;20035;-86
2022/06/04 03:57:39;;;;;;;0.40;0.40;;;;;;;18.56;48.88;101131.69;5135443;28;20019;-87
2022/06/04 04:00:32;;;;;;;0.75;0.40;;;;;;;18.55;47.67;101138.78;5161013;28;20030;-87
2022/06/04 04:03:16;;;;;;;0.65;0.65;;;;;;;18.53;47.84;101134.50;5125126;28;20039;-86
2022/06/04 04:05:54;;;;;;;0.70;0.70;;;;;;;18.53;47.30;101130.06;5177805;28;20058;-84
2022/06/04 04:08:27;;;;;;;0.28;0.28;;;;;;;18.53;47.30;101129.19;5102409;28;20448;-84
2022/06/04 04:11:08;;;;;;;0.38;0.38;;;;;;;18.49;47.15;101138.28;5143270;28;20041;-84
2022/06/04 04:13:40;;;;;;;0.40;0.40;;;;;;;18.48;47.36;101134.75;5135050;28;20181;-86
2022/06/04 04:16:12;;;;;;;0.30;0.30;;;;;;;18.51;47.53;101136.41;5118418;28;20131;-84
2022/06/04 04:18:43;;;;;;;0.85;0.70;;;;;;;18.46;47.88;101144.63;5139816;28;21405;-85
2022/06/04 04:21:17;;;;;;;0.63;0.63;;;;;;;18.45;47.21;101148.22;5138042;28;20135;-84
2022/06/04 04:23:48;;;;;;;0.43;0.43;;;;;;;18.44;47.54;101143.84;5143213;28;20035;-83
2022/06/04 04:26:21;;;;;;;0.60;0.60;;;;;;;18.40;48.30;101151.13;5144820;28;20039;-85
2022/06/04 04:28:53;;;;;;;0.50;0.50;;;;;;;18.40;48.02;101150.25;5121814;28;20035;-84
2022/06/04 04:31:23;;;;;;;0.45;0.45;;;;;;;18.40;48.04;101148.44;5125395;28;20073;-86
2022/06/04 04:34:15;;;;;;;0.70;0.70;;;;;;;18.40;47.77;101158.22;5116892;28;20570;-85
2022/06/04 04:36:45;;;;;;;0.38;0.38;;;;;;;18.34;48.21;101151.44;5117134;28;20065;-85
2022/06/04 04:39:16;;;;;;;0.40;0.40;;;;;;;18.36;48.63;101154.84;5109167;29;20047;-83
2022/06/04 04:41:47;;;;;;;0.75;0.75;;;;;;;18.37;49.06;101155.72;5137684;28;20125;-85
2022/06/04 04:44:21;;;;;;;0.98;0.98;;;;;;;18.33;48.57;101155.03;5140452;28;20030;-82
2022/06/04 04:46:53;;;;;;;0.30;0.30;;;;;;;18.34;48.45;101155.88;5160688;28;20041;-84
2022/06/04 04:49:26;;;;;;;0.30;0.30;;;;;;;18.36;48.27;101159.31;5157616;28;20073;-83
2022/06/04 04:54:49;;;;;;;1.35;1.25;;;;;;;18.37;48.42;101179.63;5120980;28;20069;-83
2022/06/04 04:57:19;;;;;;;0.30;0.30;;;;;;;18.31;49.02;101182.59;5155058;28;20026;-85
2022/06/04 04:59:53;;;;;;;0.82;0.82;;;;;;;18.27;49.71;101181.91;5144020;28;20038;-84
2022/06/04 05:02:24;;;;;;;0.35;0.35;;;;;;;18.28;48.95;101182.78;5110133;28;20065;-84
2022/06/04 05:05:07;;;;;;;1.17;0.85;;;;;;;18.34;48.47;101193.06;5141052;28;20039;-84
2022/06/04 05:07:45;;;;;;;0.40;0.40;;;;;;;18.30;48.96;101195.03;5122905;28;20047;-84
2022/06/04 05:10:16;;;;;;;0.93;0.70;;;;;;;18.36;48.59;101185.88;5136300;28;20046;-85
2022/06/04 05:12:55;;;;;;;0.47;0.47;;;;;;;18.33;48.88;101188.69;5127249;28;20060;-84
2022/06/04 05:15:25;;;;;;;0.38;0.38;;;;;;;18.38;48.99;101184.88;5123050;28;20046;-84
2022/06/04 05:17:57;;;;;;;0.88;0.82;;;;;;;18.37;49.69;101182.28;5118718;28;20495;-85
2022/06/04 05:20:28;;;;;;;0.75;0.75;;;;;;;18.37;49.59;101183.13;5110181;28;20034;-83
2022/06/04 05:23:02;;;;;;;0.32;0.32;;;;;;;18.34;49.40;101185.09;5118737;28;20043;-84
2022/06/04 05:25:37;;;;;;;;;;;;;;;18.40;49.24;101198.06;5125360;28;20066;-83
2022/06/04 05:28:11;;;;;;;1.98;0.60;;;;;;;18.37;48.96;101199.09;5140221;28;20534;-84
2022/06/04 05:30:44;;;;;;;2.72;1.20;;;;;;;18.35;50.83;101205.41;5102243;28;20415;-84
2022/06/04 05:33:15;;;;;;;0.73;0.60;;;;;;;18.37;49.63;101204.38;5134974;28;20035;-84
2022/06/04 05:35:46;;;;;;;0.40;0.40;;;;;;;18.39;49.81;101205.19;5111290;28;20050;-84
2022/06/04 05:38:16;;;;;;;1.13;0.93;;;;;;;18.39;49.77;101199.00;5143294;28;20062;-85
2022/06/04 05:40:47;;;;;;;0.40;0.40;;;;;;;18.45;49.42;101196.03;5113449;28;20324;-84
2022/06/04 05:43:20;;;;;;;0.38;0.38;;;;;;;18.47;49.65;101204.75;5123263;28;20023;-84
2022/06/04 05:46:11;;;;;;;0.47;0.47;;;;;;;18.47;50.40;101209.22;5112873;29;20075;-84
2022/06/04 05:48:44;;;;;;;0.40;0.40;;;;;;;18.45;50.64;101198.69;5107859;28;20031;-84
2022/06/04 05:51:20;;;;;;;;;;;;;;;18.50;49.71;101204.59;5128474;28;20049;-85
2022/06/04 05:53:52;;;;;;;0.50;0.50;;;;;;;18.46;50.41;101203.06;5119470;28;19919;-84
2022/06/04 05:56:44;;;;;;;0.50;0.50;;;;;;;18.52;50.08;101213.38;5118270;28;20069;-84
2022/06/04 05:59:20;;;;;;;1.85;0.73;;;;;;;18.43;50.76;101213.84;5117891;29;20037;-86
2022/06/04 06:01:54;;;;;;;0.40;0.40;;;;;;;18.46;51.37;101215.47;5120333;28;20050;-84
2022/06/04 06:04:28;;;;;;;0.40;0.40;;;;;;;18.53;50.39;101217.75;5129388;28;20081;-85
2022/06/04 06:07:00;;;;;;;0.73;0.65;;;;;;;18.53;51.16;101220.41;5094318;28;20039;-84
2022/06/04 06:09:31;;;;;;;0.85;0.85;;;;;;;18.55;50.75;101221.16;5127866;28;20055;-84
2022/06/04 06:12:08;;;;;;;0.43;0.43;;;;;;;18.59;50.81;101219.22;5127179;28;20030;-86
2022/06/04 06:14:39;;;;;;;0.93;0.88;;;;;;;18.58;51.18;101216.63;5130903;28;20125;-86
2022/06/04 06:17:10;;;;;;;0.30;0.30;;;;;;;18.65;51.40;101220.66;5121179;28;20101;-85
2022/06/04 06:19:41;;;;;;;0.38;0.38;;;;;;;18.67;50.53;101216.13;5122648;28;20046;-84
2022/06/04 06:22:11;;;;;;;1.23;1.00;;;;;;;18.72;50.34;101230.91;5123095;29;20046;-85
2022/06/04 06:24:54;;;;;;;0.52;0.52;;;;;;;18.69;50.33;101235.53;5106146;28;20050;-85
2022/06/04 06:27:25;;;;;;;0.40;0.40;;;;;;;18.77;50.40;101230.66;5108432;28;20039;-85
2022/06/04 06:29:56;;;;;;;0.70;0.70;;;;;;;18.77;50.36;101237.75;5145030;28;20043;-85
2022/06/04 06:32:26;;;;;;;0.52;0.52;;;;;;;18.77;50.69;101237.75;5127054;28;20117;-85
2022/06/04 06:34:59;;;;;;;6.45;1.40;;;;;;;18.81;50.44;101244.66;5115415;28;20500;-84
2022/06/04 06:37:33;;;;;;;0.30;0.30;;;;;;;18.83;50.26;101245.44;5125736;28;20074;-84
2022/06/04 06:40:13;;;;;;;0.40;0.40;;;;;;;18.90;50.03;101260.13;5094086;28;20388;-85
2022/06/04 06:42:43;;;;;;;0.40;0.40;;;;;;;18.86;50.29;101274.50;5128901;28;20039;-84
2022/06/04 06:45:14;;;;;;;0.45;0.45;;;;;;;18.84;50.84;101274.59;5143903;28;20105;-85
2022/06/04 06:47:45;;;;;;;0.22;0.22;;;;;;;18.99;50.09;101266.75;5115524;28;20070;-84
2022/06/04 06:50:16;;;;;;;1.17;0.95;;;;;;;19.04;50.07;101275.34;5122653;28;20057;-84
2022/06/04 06:52:50;;;;;;;0.75;0.75;;;;;;;18.96;50.96;101269.59;5159323;28;20031;-82
2022/06/04 06:55:21;;;;;;;0.70;0.70;;;;;;;18.99;50.56;101269.41;5134038;28;20051;-82
2022/06/04 06:57:51;;;;;;;0.60;0.60;;;;;;;19.03;50.83;101263.00;5121500;28;20030;-81
2022/06/04 07:00:22;;;;;;;0.63;0.60;;;;;;;19.07;50.26;101261.03;5144843;28;20050;-81
2022/06/04 07:02:53;;;;;;;0.52;0.52;;;;;;;19.16;50.10;101263.19;5128002;28;20030;-82
2022/06/04 07:05:23;;;;;;;0.28;0.28;;;;;;;19.15;50.65;101258.81;5134242;28;20442;-82
2022/06/04 07:07:54;;;;;;;0.95;0.95;;;;;;;19.09;50.97;101252.03;5107636;28;20562;-82
2022/06/04 07:10:27;;;;;;;0.30;0.30;;;;;;;19.16;50.96;101248.09;5117997;28;20047;-83
2022/06/04 07:13:10;;;;;;;0.65;0.65;;;;;;;19.27;50.19;101252.81;5142565;28;20026;-82
2022/06/04 07:15:44;;;;;;;0.67;0.67;;;;;;;19.32;50.74;101260.53;5139562;28;20034;-82
2022/06/04 07:18:16;;;;;;;0.60;0.60;;;;;;;19.32;50.49;101260.53;5100804;28;20286;-81
2022/06/04 07:20:50;;;;;;;0.60;0.60;;;;;;;19.37;50.63;101261.16;5128404;28;20042;-83
2022/06/04 07:23:23;;;;;;;0.30;0.30;;;;;;;19.33;50.70;101262.25;5143523;28;20034;-83
2022/06/04 07:25:54;;;;;;;0.32;0.32;;;;;;;19.46;50.15;101270.41;5128324;28;20325;-82
2022/06/04 07:28:24;;;;;;;0.65;0.63;;;;;;;19.43;50.68;101279.44;5129852;28;20496;-83
2022/06/04 07:30:56;;;;;;;0.40;0.40;;;;;;;19.51;50.11;101278.97;5117986;28;20070;-82
2022/06/04 07:33:27;;;;;;;0.30;0.30;;;;;;;19.59;50.17;101284.72;5123785;28;20559;-82
2022/06/04 07:35:58;;;;;;;2.63;1.08;;;;;;;19.59;50.13;101289.22;5105948;28;20043;-83
2022/06/04 07:38:38;;;;;;;0.93;0.52;;;;;;;19.71;49.85;101293.84;5115941;28;20114;-82
2022/06/04 07:41:19;;;;;;;0.28;0.28;;;;;;;19.73;49.73;101293.75;5132608;28;20051;-81
2022/06/04 07:43:50;;;;;;;0.68;0.68;;;;;;;19.78;49.82;101289.03;5138776;28;20503;-82
2022/06/04 07:46:22;;;;;;;0.30;0.30;;;;;;;19.73;49.95;101289.28;5109654;28;20050;-82
2022/06/04 07:49:00;;;;;;;0.40;0.40;;;;;;;19.79;49.76;101290.75;5125941;28;20403;-82
2022/06/04 07:51:35;;;;;;;0.47;0.47;;;;;;;19.71;50.42;101283.19;5102009;28;20040;-82
2022/06/04 07:54:08;;;;;;;1.23;1.03;;;;;;;19.81;49.74;101284.38;5123353;28;20038;-82
2022/06/04 07:56:40;;;;;;;0.60;0.60;;;;;;;19.83;50.10;101286.97;5138888;28;20166;-82
2022/06/04 07:59:16;;;;;;;0.88;0.82;;;;;;;19.78;50.25;101284.56;5137304;28;20253;-82
2022/06/04 08:01:46;;;;;;;0.32;0.32;;;;;;;19.80;50.37;101282.66;5156825;28;20043;-82
2022/06/04 08:04:20;;;;;;;3.50;1.48;;;;;;;19.79;50.48;101277.44;5164515;28;20038;-82
2022/06/04 08:06:51;;;;;;;0.73;0.73;;;;;;;19.94;50.04;101278.41;5105571;28;20058;-82
2022/06/04 08:09:22;;;;;;;2.25;0.93;;;;;;;19.90;50.41;101275.06;5131192;28;20400;-82
2022/06/04 08:11:53;;;;;;;0.40;0.40;;;;;;;20.00;50.14;101270.03;5158115;28;20042;-83
2022/06/04 08:14:26;;;;;;;0.90;0.90;;;;;;;19.96;50.08;101256.06;5126442;28;20117;-82
2022/06/04 08:16:59;;;;;;;0.77;0.77;;;;;;;20.05;50.34;101254.63;5111970;28;20545;-82
2022/06/04 08:19:33;;;;;;;0.95;0.60;;;;;;;20.11;50.35;101259.63;5124915;28;20039;-82
2022/06/04 08:22:07;;;;;;;2.47;1.15;;;;;;;20.07;50.20;101249.25;5133625;28;20041;-82
2022/06/04 08:24:40;;;;;;;1.00;0.80;;;;;;;20.05;50.50;101243.16;5125654;28;20054;-82
2022/06/04 08:27:11;;;;;;;0.87;0.87;;;;;;;20.10;50.59;101243.72;5129776;28;20516;-80
2022/06/04 08:29:41;;;;;;;0.25;0.25;;;;;;;20.16;49.93;101240.72;5118978;28;20074;-79
2022/06/04 08:32:13;;;;;;;0.22;0.22;;;;;;;20.24;49.77;101246.44;5137974;28;20133;-82
2022/06/04 08:34:43;;;;;;;0.70;0.70;;;;;;;20.28;50.42;101252.44;5121485;28;20035;-81
2022/06/04 08:37:16;;;;;;;0.57;0.52;;;;;;;20.31;50.56;101254.06;5128663;28;20039;-82
2022/06/04 08:39:46;;;;;;;0.50;0.50;;;;;;;20.34;50.51;101243.19;5113941;28;20015;-83
2022/06/04 08:42:28;;;;;;;1.02;0.82;;;;;;;20.40;50.35;101242.84;5137883;28;20066;-83
2022/06/04 08:45:01;;;;;;;0.52;0.52;;;;;;;20.38;50.30;101250.91;5140722;28;20093;-83
2022/06/04 08:47:39;;;;;;;0.60;0.60;;;;;;;20.33;51.25;101252.16;5118195;28;20123;-82
2022/06/04 08:50:15;;;;;;;0.40;0.40;;;;;;;20.49;50.22;101254.75;5132408;28;20047;-82
2022/06/04 08:52:58;;;;;;;0.47;0.47;;;;;;;20.56;50.65;101261.44;5127487;28;20034;-80
2022/06/04 08:58:52;;;;;;;0.30;0.30;;;;;;;20.60;50.41;101270.97;5146378;28;20152;-81
2022/06/04 09:01:32;;;;;;;0.57;0.57;;;;;;;20.59;50.59;101279.91;5121503;28;20051;-81
2022/06/04 09:04:34;;;;;;;0.40;0.40;;;;;;;20.68;50.39;101279.34;5102556;28;20034;-82
2022/06/04 09:07:11;;;;;;;0.50;0.50;;;;;;;20.77;49.91;101290.44;5117296;28;20033;-81
2022/06/04 09:09:56;;;;;;;0.80;0.80;;;;;;;20.80;50.17;101292.91;5099712;28;20042;-80
2022/06/04 09:12:32;;;;;;;0.80;0.80;;;;;;;20.75;50.49;101302.06;5138896;28;20069;-81
2022/06/04 09:15:17;;;;;;;0.38;0.38;;;;;;;20.89;50.02;101313.69;5111357;28;20047;-81
2022/06/04 09:17:56;;;;;;;9.98;0.60;;;;;;;20.83;50.22;101306.06;5129159;28;20579;-81
2022/06/04 09:20:33;;;;;;;0.55;0.55;;;;;;;20.89;50.03;101309.22;5150423;28;20051;-81
2022/06/04 09:23:13;;;;;;;9.13;1.52;;;;;;;20.96;49.94;101308.84;5141963;28;20082;-81
2022/06/04 09:25:46;;;;;;;1.83;0.47;;;;;;;20.87;50.23;101310.22;5124457;28;20043;-80
2022/06/04 09:28:31;;;;;;;0.82;0.82;;;;;;;20.80;50.09;101304.44;5135534;28;20066;-81
2022/06/04 09:31:10;;;;;;;0.32;0.32;;;;;;;20.89;50.09;101308.34;5109981;28;20038;-81
2022/06/04 09:33:56;;;;;;;0.47;0.47;;;;;;;20.85;49.96;101312.16;5123710;28;20485;-81
2022/06/04 09:36:37;;;;;;;0.47;0.47;;;;;;;20.91;49.57;101306.44;5148464;28;20110;-81
2022/06/04 09:39:31;;;;;;;10.63;0.88;;;;;;;20.96;49.93;101312.34;5142524;28;20027;-82
2022/06/04 09:42:14;;;;;;;1.10;0.93;;;;;;;20.98;49.76;101312.28;5100547;28;20039;-81
2022/06/04 09:45:00;;;;;;;0.73;0.70;;;;;;;20.96;49.89;101312.34;5116571;28;20054;-82
2022/06/04 09:47:43;;;;;;;0.95;0.90;;;;;;;20.98;50.31;101307.78;5112589;28;20567;-82
2022/06/04 09:50:22;;;;;;;0.95;0.95;;;;;;;21.00;50.32;101308.56;5140624;28;20097;-82
2022/06/04 09:53:04;;;;;;;0.68;0.68;;;;;;;21.12;49.89;101309.59;5128903;28;20384;-82
2022/06/04 09:55:35;;;;;;;0.43;0.43;;;;;;;20.99;51.07;101309.50;5147492;28;20069;-82
2022/06/04 09:58:24;;;;;;;0.75;0.75;;;;;;;21.02;50.16;101311.97;5127185;28;20027;-81
2022/06/04 10:01:09;;;;;;;1.00;1.00;;;;;;;21.19;50.17;101316.25;5137304;28;20396;-82
2022/06/04 10:03:45;;;;;;;0.75;0.55;;;;;;;21.23;50.19;101315.13;5123646;28;20035;-82
2022/06/04 10:06:17;;;;;;;0.68;0.68;;;;;;;21.23;50.54;101316.91;5116636;29;20046;-80
2022/06/04 10:11:48;;;;;;;0.73;0.73;;;;;;;21.33;50.01;101323.41;5141897;28;20698;-82
2022/06/04 10:14:33;;;;;;;0.70;0.70;;;;;;;21.39;50.66;101323.00;5130086;28;20047;-81
2022/06/04 10:17:15;;;;;;;0.43;0.43;;;;;;;21.36;50.43;101317.84;5134989;28;20050;-81
2022/06/04 10:19:55;;;;;;;0.40;0.40;;;;;;;21.41;50.41;101320.22;5136284;28;20049;-82
2022/06/04 10:22:26;;;;;;;0.50;0.35;;;;;;;21.43;50.17;101313.00;5144453;28;20031;-81
2022/06/04 10:25:03;;;;;;;0.30;0.30;;;;;;;21.45;50.17;101316.44;5130848;28;20500;-81
2022/06/04 10:28:17;;;;;;;0.63;0.63;;;;;;;21.50;50.44;101325.00;5141482;28;20019;-82
2022/06/04 10:30:51;;;;;;;0.88;0.88;;;;;;;21.43;50.80;101323.66;5108468;28;20051;-82
2022/06/04 10:33:51;;;;;;;0.20;0.20;;;;;;;21.53;51.48;101321.25;5127565;28;20035;-81
2022/06/04 10:36:27;;;;;;;1.08;0.98;;;;;;;21.54;51.00;101314.97;5130277;28;20043;-81
2022/06/04 10:39:25;;;;;;;0.70;0.70;;;;;;;21.70;50.16;101313.06;5141162;28;20307;-81
2022/06/04 10:42:26;;;;;;;0.88;0.88;;;;;;;21.61;51.03;101305.63;5135391;28;20046;-81
2022/06/04 10:45:26;;;;;;;1.00;0.93;;;;;;;21.68;50.45;101306.97;5159197;28;20039;-82
2022/06/04 10:48:31;;;;;;;0.57;0.57;;;;;;;21.71;51.02;101311.25;5139141;28;20026;-81
2022/06/04 10:51:29;;;;;;;0.88;0.73;;;;;;;21.75;51.00;101301.22;5117799;28;20046;-81
2022/06/04 10:54:09;;;;;;;0.52;0.52;;;;;;;21.77;51.42;101305.50;5140554;28;20045;-80
2022/06/04 10:56:53;;;;;;;0.75;0.75;;;;;;;21.83;50.61;101304.25;5126137;28;20035;-81
2022/06/04 10:59:27;;;;;;;0.82;0.63;;;;;;;21.86;50.73;101304.03;5110331;28;20027;-81
2022/06/04 11:02:25;;;;;;;1.00;0.60;;;;;;;21.86;50.61;101304.03;5136688;28;20097;-83
2022/06/04 11:05:07;;;;;;;0.30;0.30;;;;;;;21.95;50.98;101298.09;5125751;28;20042;-81
2022/06/04 11:07:53;;;;;;;0.50;0.50;;;;;;;22.04;50.65;101298.44;5123880;28;20905;-81
2022/06/04 11:10:33;;;;;;;0.38;0.38;;;;;;;22.06;51.20;101294.72;5105086;28;20050;-81
2022/06/04 11:13:04;;;;;;;0.55;0.55;;;;;;;22.21;50.55;101291.97;5118497;28;20041;-81
2022/06/04 11:15:44;;;;;;;0.35;0.35;;;;;;;22.29;50.69;101292.31;5135036;28;20043;-81
2022/06/04 11:18:32;;;;;;;0.75;0.75;;;;;;;22.31;50.83;101293.09;5139595;28;20096;-81
2022/06/04 11:21:09;;;;;;;0.40;0.40;;;;;;;22.40;50.74;101294.28;5129603;28;20057;-81
2022/06/04 11:23:55;;;;;;;1.00;0.77;;;;;;;22.48;50.49;101300.81;5123878;28;20318;-81
2022/06/04 11:26:40;;;;;;;1.13;1.08;;;;;;;22.55;50.73;101306.59;5135487;28;20047;-81
2022/06/04 11:29:16;;;;;;;0.93;0.90;;;;;;;22.55;50.76;101306.59;5098470;29;20576;-81
2022/06/04 11:32:08;;;;;;;0.50;0.50;;;;;;;22.58;51.10;101305.53;5123055;28;20039;-81
2022/06/04 11:35:09;;;;;;;0.52;0.52;;;;;;;22.66;49.96;101305.84;5124756;28;20197;-81
2022/06/04 11:38:06;;;;;;;0.50;0.50;;;;;;;22.69;50.28;101312.81;5150375;28;20039;-81
2022/06/04 11:40:55;;;;;;;1.60;1.50;;;;;;;;;;5119150;28;20047;-80
2022/06/04 11:43:55;;;;;;;0.30;0.30;;;;;;;22.88;50.41;101305.22;5117569;28;20062;-79
2022/06/04 11:46:26;;;;;;;0.68;0.60;;;;;;;22.97;50.65;101319.78;5121913;28;20536;-80
2022/06/04 11:49:41;;;;;;;0.65;0.57;;;;;;;23.10;50.96;101303.69;5126935;28;20050;-80
2022/06/04 11:52:34;;;;;;;1.45;0.85;;;;;;;23.19;50.86;101305.75;5110959;29;20031;-79
2022/06/04 11:55:24;;;;;;;0.60;0.60;;;;;;;23.35;50.66;101307.31;5139293;28;20097;-80
2022/06/04 11:58:00;;;;;;;0.85;0.50;;;;;;;23.37;49.91;101311.63;5130661;28;20034;-80
2022/06/04 12:00:39;;;;;;;0.47;0.47;;;;;;;23.53;49.37;101307.84;5107319;28;20056;-80
2022/06/04 12:03:18;;;;;;;1.13;0.70;;;;;;;23.54;50.16;101313.06;5099185;29;20043;-80
2022/06/04 12:06:13;;;;;;;0.40;0.40;;;;;;;23.64;50.09;101305.22;5144795;28;20051;-80
2022/06/04 12:09:00;;;;;;;0.47;0.47;;;;;;;23.70;49.94;101304.78;5123811;28;20051;-80
2022/06/04 12:11:37;;;;;;;0.65;0.65;;;;;;;23.88;49.27;101297.19;5118969;28;20039;-80
2022/06/04 12:14:29;;;;;;;0.47;0.47;;;;;;;23.92;48.84;101296.97;5157599;28;20573;-80
2022/06/04 12:17:18;;;;;;;0.40;0.40;;;;;;;23.99;48.73;101304.47;5126433;28;20077;-79
2022/06/04 12:26:29;;;;;;;0.68;0.68;;;;;;;24.17;48.63;101286.13;5111171;28;20463;-80
2022/06/04 12:29:29;;;;;;;1.42;0.57;;;;;;;24.30;48.57;101279.84;5139599;28;20065;-81
2022/06/04 12:32:13;;;;;;;0.73;0.73;;;;;;;24.34;48.56;101275.94;5123353;28;20135;-81
2022/06/04 12:34:44;;;;;;;0.63;0.63;;;;;;;24.39;48.77;101272.91;5108617;28;20145;-81
2022/06/04 12:37:33;;;;;;;0.60;0.60;;;;;;;24.51;48.38;101275.50;5113927;29;20031;-80
2022/06/04 12:40:15;;;;;;;3.13;0.75;;;;;;;24.52;47.90;101253.06;5126293;28;20111;-82
2022/06/04 12:43:12;;;;;;;1.02;0.77;;;;;;;24.54;47.87;101258.31;5138757;28;20023;-82